createdAt,value
2023-04-12T00:00:21.603Z,20.58
2023-04-12T00:02:54.358Z,11.75
2023-04-12T00:05:27.347Z,17.27
2023-04-12T00:07:55.727Z,15.88
2023-04-12T00:10:23.391Z,20.17
2023-04-12T00:12:50.588Z,13.98
2023-04-12T00:15:18.060Z,18.58
2023-04-12T00:17:46.478Z,17.92
2023-04-12T00:20:16.515Z,15.32
2023-04-12T00:22:43.886Z,15.90
2023-04-12T00:25:11.333Z,17.23
2023-04-12T00:27:39.192Z,26.35
2023-04-12T00:30:08.352Z,14.15
2023-04-12T00:32:36.180Z,19.77
2023-04-12T00:35:03.480Z,14.93
2023-04-12T00:37:30.808Z,17.23
2023-04-12T00:39:58.217Z,17.33
2023-04-12T00:42:25.439Z,19.70
2023-04-12T00:44:53.371Z,16.40
2023-04-12T00:47:21.468Z,16.65
2023-04-12T00:49:48.876Z,16.73
2023-04-12T00:52:18.250Z,17.17
2023-04-12T00:54:45.969Z,17.98
2023-04-12T00:57:13.324Z,20.67
2023-04-12T00:59:41.029Z,20.95
2023-04-12T01:02:08.363Z,17.08
2023-04-12T01:04:38.010Z,16.58
2023-04-12T01:07:07.910Z,15.57
2023-04-12T01:09:42.103Z,17.65
2023-04-12T01:12:37.204Z,18.02
2023-04-12T01:15:12.948Z,17.38
2023-04-12T01:17:58.213Z,19.60
2023-04-12T01:20:30.789Z,17.55
2023-04-12T01:23:35.683Z,18.05
2023-04-12T01:26:12.910Z,18.52
2023-04-12T01:28:42.837Z,20.05
2023-04-12T01:31:13.172Z,15.07
2023-04-12T01:33:41.072Z,17.02
2023-04-12T01:36:21.162Z,12.65
2023-04-12T01:38:49.033Z,15.30
2023-04-12T01:41:16.910Z,16.00
2023-04-12T01:43:46.359Z,15.23
2023-04-12T01:46:16.780Z,17.67
2023-04-12T01:48:51.910Z,19.80
2023-04-12T01:51:45.860Z,12.95
2023-04-12T01:54:22.668Z,12.77
2023-04-12T01:56:54.731Z,11.88
2023-04-12T01:59:24.337Z,16.42
2023-04-12T02:01:51.788Z,13.82
2023-04-12T02:04:19.814Z,17.27
2023-04-12T02:06:47.779Z,12.90
2023-04-12T02:09:15.980Z,13.77
2023-04-12T02:11:47.533Z,14.82
2023-04-12T02:14:15.377Z,15.52
2023-04-12T02:19:13.157Z,16.27
2023-04-12T02:21:43.749Z,14.05
2023-04-12T02:24:11.917Z,9.93
2023-04-12T02:26:40.279Z,12.70
2023-04-12T02:29:10.436Z,12.07
2023-04-12T02:31:39.207Z,12.35
2023-04-12T02:34:09.691Z,10.93
2023-04-12T02:39:07.875Z,12.38
2023-04-12T02:41:36.479Z,12.50
2023-04-12T02:44:06.986Z,11.70
2023-04-12T02:46:34.382Z,8.85
2023-04-12T02:49:02.770Z,9.85
2023-04-12T02:51:38.526Z,9.10
2023-04-12T02:54:06.038Z,9.40
2023-04-12T02:56:47.688Z,13.75
2023-04-12T02:59:54.119Z,11.93
2023-04-12T03:02:27.923Z,10.57
2023-04-12T03:05:00.354Z,9.52
2023-04-12T03:07:36.853Z,12.05
2023-04-12T03:10:07.280Z,13.27
2023-04-12T03:12:38.656Z,11.80
2023-04-12T03:15:17.970Z,11.77
2023-04-12T03:17:49.366Z,12.55
2023-04-12T03:20:20.547Z,6.75
2023-04-12T03:23:04.948Z,8.98
2023-04-12T03:25:37.053Z,8.63
2023-04-12T03:28:23.485Z,13.10
2023-04-12T03:30:52.986Z,9.40
2023-04-12T03:33:23.892Z,11.10
2023-04-12T03:35:55.485Z,8.93
2023-04-12T03:38:23.621Z,7.35
2023-04-12T03:40:51.133Z,4.88
2023-04-12T03:43:24.286Z,1.95
2023-04-12T03:45:51.836Z,0.90
2023-04-12T03:48:19.350Z,5.53
2023-04-12T03:50:48.446Z,3.38
2023-04-12T03:53:21.396Z,2.75
2023-04-12T03:55:49.105Z,3.25
2023-04-12T03:58:18.975Z,1.77
2023-04-12T04:00:47.462Z,2.67
2023-04-12T04:03:15.951Z,2.22
2023-04-12T04:06:03.892Z,2.17
2023-04-12T04:08:33.144Z,1.92
2023-04-12T04:11:00.935Z,1.92
2023-04-12T04:13:34.070Z,1.02
2023-04-12T04:16:06.875Z,1.17
2023-04-12T04:18:35.990Z,2.67
2023-04-12T04:21:04.585Z,1.10
2023-04-12T04:23:40.265Z,1.85
2023-04-12T04:26:13.161Z,3.65
2023-04-12T04:28:47.219Z,0.73
2023-04-12T04:31:18.730Z,4.65
2023-04-12T04:33:51.038Z,1.30
2023-04-12T04:36:21.978Z,2.72
2023-04-12T04:38:53.953Z,1.58
2023-04-12T04:41:39.190Z,1.00
2023-04-12T04:44:11.299Z,1.58
2023-04-12T04:46:44.925Z,2.13
2023-04-12T04:49:12.940Z,3.85
2023-04-12T04:51:40.210Z,0.88
2023-04-12T04:54:09.585Z,1.37
2023-04-12T04:56:40.920Z,1.75
2023-04-12T04:59:09.856Z,4.60
2023-04-12T05:01:37.586Z,1.63
2023-04-12T05:04:05.265Z,1.35
2023-04-12T05:06:32.667Z,1.50
2023-04-12T05:09:01.864Z,1.02
2023-04-12T05:11:32.279Z,1.02
2023-04-12T05:14:14.344Z,1.90
2023-04-12T05:16:41.777Z,1.67
2023-04-12T05:19:09.185Z,3.03
2023-04-12T05:21:36.562Z,2.90
2023-04-12T05:24:04.053Z,1.60
2023-04-12T05:26:34.395Z,2.60
2023-04-12T05:29:04.526Z,1.55
2023-04-12T05:31:32.450Z,1.98
2023-04-12T05:34:03.437Z,5.38
2023-04-12T05:36:35.023Z,4.95
2023-04-12T05:39:04.180Z,5.80
2023-04-12T05:44:03.598Z,6.63
2023-04-12T05:46:31.071Z,6.32
2023-04-12T05:48:58.975Z,3.88
2023-04-12T05:51:39.920Z,9.85
2023-04-12T05:54:10.724Z,9.70
2023-04-12T05:56:39.333Z,6.88
2023-04-12T05:59:08.164Z,4.82
2023-04-12T06:01:35.713Z,5.30
2023-04-12T06:04:03.123Z,7.30
2023-04-12T06:06:31.536Z,6.60
2023-04-12T06:09:03.186Z,6.43
2023-04-12T06:11:33.781Z,6.90
2023-04-12T06:14:02.019Z,10.23
2023-04-12T06:16:30.039Z,6.38
2023-04-12T06:18:58.134Z,7.38
2023-04-12T06:21:27.135Z,6.80
2023-04-12T06:23:54.779Z,7.43
2023-04-12T06:26:22.097Z,6.05
2023-04-12T06:28:49.382Z,8.80
2023-04-12T06:31:17.207Z,8.18
2023-04-12T06:33:44.870Z,7.93
2023-04-12T06:36:12.752Z,5.72
2023-04-12T06:38:40.338Z,7.78
2023-04-12T06:41:08.246Z,6.32
2023-04-12T06:43:36.001Z,8.50
2023-04-12T06:46:03.393Z,8.75
2023-04-12T06:48:30.765Z,8.25
2023-04-12T06:50:58.001Z,9.13
2023-04-12T06:53:25.187Z,9.55
2023-04-12T06:55:53.766Z,6.93
2023-04-12T06:58:20.978Z,11.88
2023-04-12T07:00:48.279Z,11.35
2023-04-12T07:03:15.881Z,9.45
2023-04-12T07:05:43.268Z,9.98
2023-04-12T07:08:10.654Z,7.00
2023-04-12T07:10:38.161Z,8.52
2023-04-12T07:13:08.236Z,5.50
2023-04-12T07:15:36.421Z,5.90
2023-04-12T07:18:03.710Z,6.57
2023-04-12T07:20:31.091Z,9.70
2023-04-12T07:22:58.440Z,10.32
2023-04-12T07:25:25.793Z,4.15
2023-04-12T07:27:53.234Z,6.43
2023-04-12T07:30:20.926Z,9.38
2023-04-12T07:32:48.681Z,7.93
2023-04-12T07:35:16.627Z,4.68
2023-04-12T07:37:43.872Z,9.80
2023-04-12T07:40:11.544Z,8.15
2023-04-12T07:42:38.808Z,9.77
2023-04-12T07:45:06.783Z,10.02
2023-04-12T07:47:34.061Z,3.92
2023-04-12T07:50:02.176Z,5.70
2023-04-12T07:52:29.883Z,6.13
2023-04-12T07:54:57.362Z,8.35
2023-04-12T07:57:25.061Z,8.50
2023-04-12T07:59:52.784Z,15.45
2023-04-12T08:02:25.907Z,5.43
2023-04-12T08:04:53.885Z,8.02
2023-04-12T08:07:22.313Z,5.28
2023-04-12T08:09:49.899Z,5.10
2023-04-12T08:12:17.227Z,5.93
2023-04-12T08:14:44.888Z,7.00
2023-04-12T08:17:12.234Z,5.07
2023-04-12T08:19:39.560Z,7.00
2023-04-12T08:22:12.505Z,3.90
2023-04-12T08:24:40.922Z,4.90
2023-04-12T08:27:08.118Z,8.02
2023-04-12T08:29:41.259Z,5.40
2023-04-12T08:32:10.143Z,5.65
2023-04-12T08:34:37.631Z,6.32
2023-04-12T08:37:05.725Z,4.15
2023-04-12T08:39:33.064Z,5.75
2023-04-12T08:42:00.897Z,4.22
2023-04-12T08:44:42.099Z,5.07
2023-04-12T08:47:10.754Z,4.70
2023-04-12T08:49:40.369Z,2.65
2023-04-12T08:52:08.670Z,4.32
2023-04-12T08:54:38.852Z,5.82
2023-04-12T08:59:41.076Z,4.00
2023-04-12T09:02:08.831Z,4.78
2023-04-12T09:04:53.061Z,5.75
2023-04-12T09:07:23.702Z,5.70
2023-04-12T09:09:51.635Z,5.55
2023-04-12T09:12:22.364Z,3.33
2023-04-12T09:15:11.308Z,23.88
2023-04-12T09:17:42.937Z,23.15
2023-04-12T09:20:16.895Z,24.92
2023-04-12T09:22:48.901Z,13.52
2023-04-12T09:25:16.714Z,5.55
2023-04-12T09:27:52.355Z,7.22
2023-04-12T09:30:20.800Z,6.25
2023-04-12T09:32:53.503Z,7.97
2023-04-12T09:35:41.215Z,7.00
2023-04-12T09:38:13.625Z,7.75
2023-04-12T09:40:41.575Z,8.77
2023-04-12T09:43:09.992Z,6.07
2023-04-12T09:45:40.931Z,4.32
2023-04-12T09:48:08.257Z,9.73
2023-04-12T09:50:35.705Z,3.80
2023-04-12T09:53:04.541Z,10.68
2023-04-12T09:55:32.431Z,3.80
2023-04-12T09:58:04.991Z,3.15
2023-04-12T10:00:34.543Z,3.08
2023-04-12T10:03:02.428Z,6.82
2023-04-12T10:05:30.325Z,6.97
2023-04-12T10:08:00.801Z,5.00
2023-04-12T10:10:30.953Z,4.25
2023-04-12T10:12:58.765Z,3.33
2023-04-12T10:15:26.533Z,2.88
2023-04-12T10:17:59.377Z,3.58
2023-04-12T10:20:29.168Z,3.92
2023-04-12T10:22:59.573Z,6.55
2023-04-12T10:25:30.939Z,7.00
2023-04-12T10:28:13.725Z,5.03
2023-04-12T10:30:41.091Z,8.00
2023-04-12T10:33:16.823Z,10.40
2023-04-12T10:36:03.914Z,5.63
2023-04-12T10:38:45.401Z,6.85
2023-04-12T10:41:20.714Z,7.80
2023-04-12T10:43:49.005Z,11.40
2023-04-12T10:46:38.340Z,11.35
2023-04-12T10:49:10.497Z,9.27
2023-04-12T10:51:38.087Z,6.97
2023-04-12T10:54:17.792Z,10.98
2023-04-12T10:56:46.693Z,10.80
2023-04-12T11:00:02.917Z,11.57
2023-04-12T11:02:34.556Z,8.80
2023-04-12T11:05:10.705Z,9.07
2023-04-12T11:08:00.423Z,9.85
2023-04-12T11:10:39.909Z,11.18
2023-04-12T11:13:09.600Z,12.18
2023-04-12T11:15:39.002Z,7.32
2023-04-12T11:18:12.699Z,8.68
2023-04-12T11:20:42.865Z,7.50
2023-04-12T11:23:11.555Z,8.82
2023-04-12T11:25:39.131Z,8.10
2023-04-12T11:28:14.088Z,4.78
2023-04-12T11:30:55.425Z,7.82
2023-04-12T11:33:37.305Z,9.07
2023-04-12T11:36:13.529Z,12.10
2023-04-12T11:38:41.347Z,8.73
2023-04-12T11:41:09.390Z,10.55
2023-04-12T11:43:38.761Z,6.28
2023-04-12T11:46:06.498Z,11.32
2023-04-12T11:48:33.973Z,8.52
2023-04-12T11:51:11.133Z,10.85
2023-04-12T11:53:39.074Z,6.68
2023-04-12T11:56:06.845Z,8.35
2023-04-12T11:58:34.145Z,5.45
2023-04-12T12:01:01.673Z,9.93
2023-04-12T12:03:29.288Z,7.75
2023-04-12T12:05:57.042Z,6.32
2023-04-12T12:08:26.017Z,9.25
2023-04-12T12:11:07.197Z,10.93
2023-04-12T12:13:48.583Z,9.23
2023-04-12T12:16:16.600Z,5.75
2023-04-12T12:18:45.002Z,5.25
2023-04-12T12:21:13.439Z,7.90
2023-04-12T12:23:43.126Z,6.57
2023-04-12T12:26:19.068Z,7.80
2023-04-12T12:28:52.216Z,4.28
2023-04-12T12:31:21.759Z,7.57
2023-04-12T12:33:51.331Z,5.90
2023-04-12T12:36:20.966Z,5.85
2023-04-12T12:38:49.296Z,4.28
2023-04-12T12:41:17.600Z,3.35
2023-04-12T12:43:49.132Z,3.90
2023-04-12T12:46:20.226Z,3.92
2023-04-12T12:48:49.516Z,3.10
2023-04-12T12:51:20.413Z,4.50
2023-04-12T12:53:48.090Z,4.00
2023-04-12T12:56:15.938Z,2.15
2023-04-12T12:58:43.269Z,3.17
2023-04-12T13:01:11.214Z,4.15
2023-04-12T13:03:38.758Z,10.65
2023-04-12T13:06:06.745Z,4.57
2023-04-12T13:08:35.476Z,7.13
2023-04-12T13:11:03.070Z,5.40
2023-04-12T13:13:30.496Z,3.90
2023-04-12T13:15:57.986Z,4.57
2023-04-12T13:18:25.228Z,5.82
2023-04-12T13:20:52.509Z,5.82
2023-04-12T13:23:20.004Z,3.45
2023-04-12T13:25:47.465Z,4.85
2023-04-12T13:28:16.862Z,6.10
2023-04-12T13:30:44.228Z,5.50
2023-04-12T13:33:13.371Z,3.25
2023-04-12T13:35:45.219Z,5.13
2023-04-12T13:38:12.611Z,8.85
2023-04-12T13:40:39.975Z,8.05
2023-04-12T13:43:08.691Z,3.90
2023-04-12T13:45:37.650Z,6.13
2023-04-12T13:48:04.947Z,4.30
2023-04-12T13:50:32.250Z,3.70
2023-04-12T13:52:59.646Z,4.40
2023-04-12T13:55:26.945Z,7.32
2023-04-12T13:57:54.313Z,5.15
2023-04-12T14:00:21.900Z,5.75
2023-04-12T14:02:49.273Z,4.38
2023-04-12T14:05:16.637Z,3.35
2023-04-12T14:07:43.897Z,4.70
2023-04-12T14:10:11.402Z,2.58
2023-04-12T14:12:38.737Z,5.97
2023-04-12T14:15:06.619Z,1.80
2023-04-12T14:17:33.898Z,4.25
2023-04-12T14:20:01.443Z,3.85
2023-04-12T14:22:28.713Z,4.50
2023-04-12T14:24:56.098Z,2.88
2023-04-12T14:27:23.431Z,6.47
2023-04-12T14:29:50.780Z,3.15
2023-04-12T14:32:18.146Z,2.28
2023-04-12T14:34:46.407Z,4.60
2023-04-12T14:37:13.855Z,4.00
2023-04-12T14:39:41.056Z,2.20
2023-04-12T14:42:08.368Z,3.58
2023-04-12T14:44:35.644Z,3.72
2023-04-12T14:47:03.146Z,4.72
2023-04-12T14:49:33.172Z,6.63
2023-04-12T14:52:02.119Z,8.30
2023-04-12T14:54:29.424Z,4.47
2023-04-12T14:56:57.066Z,8.10
2023-04-12T14:59:24.944Z,4.97
2023-04-12T15:01:52.662Z,4.85
2023-04-12T15:04:20.423Z,4.45
2023-04-12T15:06:48.088Z,2.90
2023-04-12T15:09:17.712Z,3.83
2023-04-12T15:11:49.367Z,4.13
2023-04-12T15:14:18.113Z,3.40
2023-04-12T15:16:46.565Z,5.38
2023-04-12T15:19:20.006Z,6.55
2023-04-12T15:21:52.371Z,6.88
2023-04-12T15:24:19.938Z,3.30
2023-04-12T15:26:48.788Z,3.20
2023-04-12T15:29:16.734Z,5.95
2023-04-12T15:31:44.462Z,2.53
2023-04-12T15:34:13.511Z,3.17
2023-04-12T15:36:43.040Z,4.55
2023-04-12T15:39:10.996Z,1.90
2023-04-12T15:41:39.952Z,4.65
2023-04-12T15:44:09.335Z,2.17
2023-04-12T15:46:36.626Z,3.83
2023-04-12T15:49:04.176Z,2.63
2023-04-12T15:51:32.335Z,5.53
2023-04-12T15:53:59.984Z,3.03
2023-04-12T15:56:28.180Z,1.20
2023-04-12T15:58:57.648Z,4.30
2023-04-12T16:01:25.636Z,3.50
2023-04-12T16:03:53.284Z,2.42
2023-04-12T16:06:21.206Z,1.30
2023-04-12T16:08:54.697Z,7.35
2023-04-12T16:11:23.787Z,2.63
2023-04-12T16:13:51.968Z,2.22
2023-04-12T16:16:21.775Z,8.57
2023-04-12T16:18:49.483Z,6.95
2023-04-12T16:21:19.949Z,5.68
2023-04-12T16:23:48.423Z,4.03
2023-04-12T16:26:21.447Z,5.30
2023-04-12T16:28:50.549Z,3.15
2023-04-12T16:31:19.824Z,3.55
2023-04-12T16:33:51.193Z,7.18
2023-04-12T16:36:19.341Z,3.92
2023-04-12T16:38:46.816Z,4.13
2023-04-12T16:41:14.275Z,3.70
2023-04-12T16:43:43.975Z,5.97
2023-04-12T16:46:12.938Z,8.00
2023-04-12T16:48:41.568Z,7.65
2023-04-12T16:51:08.911Z,4.80
2023-04-12T16:53:36.657Z,12.02
2023-04-12T16:56:04.694Z,4.03
2023-04-12T16:58:33.258Z,4.78
2023-04-12T17:01:02.036Z,9.43
2023-04-12T17:03:30.373Z,4.78
2023-04-12T17:05:58.169Z,4.65
2023-04-12T17:08:28.520Z,3.05
2023-04-12T17:10:56.054Z,5.32
2023-04-12T17:13:25.060Z,4.03
2023-04-12T17:15:53.265Z,3.63
2023-04-12T17:18:20.976Z,4.07
2023-04-12T17:20:49.632Z,3.25
2023-04-12T17:23:19.344Z,3.45
2023-04-12T17:25:46.889Z,3.67
2023-04-12T17:28:16.598Z,5.93
2023-04-12T17:30:44.914Z,6.25
2023-04-12T17:33:18.002Z,13.05
2023-04-12T17:35:46.293Z,29.00
2023-04-12T17:38:13.620Z,5.53
2023-04-12T17:40:41.241Z,11.85
2023-04-12T17:43:09.400Z,5.22
2023-04-12T17:45:36.686Z,16.55
2023-04-12T17:48:05.405Z,7.20
2023-04-12T17:50:32.884Z,10.88
2023-04-12T17:53:01.832Z,7.90
2023-04-12T17:55:29.332Z,5.25
2023-04-12T17:57:57.234Z,6.78
2023-04-12T18:00:25.337Z,6.68
2023-04-12T18:02:53.753Z,6.55
2023-04-12T18:05:21.646Z,8.98
2023-04-12T18:07:49.776Z,5.35
2023-04-12T18:10:21.400Z,9.13
2023-04-12T18:12:49.035Z,14.85
2023-04-12T18:15:16.479Z,7.78
2023-04-12T18:17:44.003Z,5.70
2023-04-12T18:20:12.082Z,12.52
2023-04-12T18:22:39.868Z,9.00
2023-04-12T18:25:09.638Z,8.70
2023-04-12T18:27:37.080Z,8.65
2023-04-12T18:30:04.978Z,9.18
2023-04-12T18:32:32.444Z,7.65
2023-04-12T18:35:00.184Z,8.73
2023-04-12T18:37:27.640Z,6.32
2023-04-12T18:39:55.600Z,6.40
2023-04-12T18:42:22.850Z,8.15
2023-04-12T18:44:51.251Z,8.52
2023-04-12T18:47:19.120Z,10.30
2023-04-12T18:49:46.359Z,9.00
2023-04-12T18:52:13.704Z,12.02
2023-04-12T18:54:41.061Z,13.30
2023-04-12T18:57:08.949Z,11.82
2023-04-12T18:59:36.392Z,14.10
2023-04-12T19:02:03.816Z,9.65
2023-04-12T19:04:31.232Z,12.68
2023-04-12T19:06:58.506Z,5.95
2023-04-12T19:09:27.347Z,10.50
2023-04-12T19:11:56.906Z,12.32
2023-04-12T19:14:25.359Z,11.77
2023-04-12T19:16:53.067Z,7.75
2023-04-12T19:19:20.851Z,9.50
2023-04-12T19:21:48.145Z,5.97
2023-04-12T19:24:15.446Z,5.18
2023-04-12T19:26:47.197Z,10.82
2023-04-12T19:29:18.731Z,7.70
2023-04-12T19:31:47.640Z,4.63
2023-04-12T19:34:17.780Z,4.55
2023-04-12T19:36:45.500Z,12.07
2023-04-12T19:39:15.213Z,12.98
2023-04-12T19:44:10.062Z,7.78
2023-04-12T19:46:39.001Z,6.25
2023-04-12T19:49:06.382Z,5.63
2023-04-12T19:51:34.602Z,8.65
2023-04-12T19:54:02.765Z,7.80
2023-04-12T19:56:31.442Z,5.07
2023-04-12T19:58:59.908Z,10.20
2023-04-12T20:01:27.486Z,5.43
2023-04-12T20:03:54.890Z,6.32
2023-04-12T20:06:23.434Z,12.40
2023-04-12T20:08:50.945Z,7.43
2023-04-12T20:11:18.392Z,5.85
2023-04-12T20:13:45.616Z,9.60
2023-04-12T20:16:12.805Z,11.93
2023-04-12T20:18:40.160Z,7.25
2023-04-12T20:21:09.937Z,13.43
2023-04-12T20:23:37.252Z,9.07
2023-04-12T20:26:05.487Z,5.90
2023-04-12T20:28:33.006Z,8.25
2023-04-12T20:31:00.790Z,8.90
2023-04-12T20:33:28.102Z,10.55
2023-04-12T20:35:55.668Z,7.53
2023-04-12T20:38:23.181Z,9.45
2023-04-12T20:40:50.766Z,6.70
2023-04-12T20:43:18.155Z,6.65
2023-04-12T20:45:46.950Z,9.98
2023-04-12T20:48:14.314Z,9.30
2023-04-12T20:50:43.172Z,8.88
2023-04-12T20:53:15.193Z,12.02
2023-04-12T20:55:42.874Z,5.30
2023-04-12T20:58:12.577Z,9.02
2023-04-12T21:00:40.513Z,8.80
2023-04-12T21:03:08.293Z,8.95
2023-04-12T21:05:35.816Z,10.02
2023-04-12T21:08:03.240Z,9.40
2023-04-12T21:10:30.631Z,8.98
2023-04-12T21:13:01.800Z,8.57
2023-04-12T21:15:30.241Z,10.05
2023-04-12T21:17:57.738Z,13.43
2023-04-12T21:20:25.467Z,11.70
2023-04-12T21:22:53.652Z,8.15
2023-04-12T21:25:21.349Z,10.02
2023-04-12T21:27:49.812Z,8.88
2023-04-12T21:30:17.375Z,10.70
2023-04-12T21:32:45.086Z,10.05
2023-04-12T21:35:13.874Z,11.27
2023-04-12T21:37:41.062Z,9.50
2023-04-12T21:40:12.835Z,9.82
2023-04-12T21:42:40.795Z,13.50
2023-04-12T21:45:09.871Z,7.80
2023-04-12T21:47:40.051Z,9.57
2023-04-12T21:50:08.801Z,10.02
2023-04-12T21:52:36.628Z,11.57
2023-04-12T21:55:07.297Z,10.45
2023-04-12T21:57:34.940Z,10.23
2023-04-12T22:00:05.644Z,9.13
2023-04-12T22:02:39.429Z,16.73
2023-04-12T22:05:07.646Z,11.20
2023-04-12T22:07:35.348Z,9.73
2023-04-12T22:10:02.959Z,9.55
2023-04-12T22:12:33.752Z,10.40
2023-04-12T22:15:00.994Z,9.95
2023-04-12T22:17:29.287Z,6.60
2023-04-12T22:19:56.787Z,11.27
2023-04-12T22:22:24.909Z,7.43
2023-04-12T22:24:52.777Z,10.98
2023-04-12T22:27:20.155Z,8.63
2023-04-12T22:29:49.819Z,13.30
2023-04-12T22:32:17.091Z,6.30
2023-04-12T22:34:45.029Z,8.98
2023-04-12T22:37:13.619Z,15.45
2023-04-12T22:39:40.890Z,5.25
2023-04-12T22:42:08.412Z,9.90
2023-04-12T22:44:38.453Z,8.43
2023-04-12T22:47:07.383Z,9.95
2023-04-12T22:49:44.567Z,12.88
2023-04-12T22:52:12.087Z,10.77
2023-04-12T22:54:40.212Z,8.20
2023-04-12T22:57:07.629Z,9.60
2023-04-12T22:59:34.991Z,8.68
2023-04-12T23:02:02.858Z,12.02
2023-04-12T23:04:30.179Z,14.25
2023-04-12T23:06:57.531Z,13.80
2023-04-12T23:09:25.621Z,15.38
2023-04-12T23:11:53.253Z,12.60
2023-04-12T23:14:20.689Z,14.52
2023-04-12T23:16:51.621Z,14.18
2023-04-12T23:19:19.003Z,17.42
2023-04-12T23:21:46.283Z,12.35
2023-04-12T23:24:15.605Z,10.63
2023-04-12T23:26:45.245Z,16.27
2023-04-12T23:29:13.212Z,13.25
2023-04-12T23:31:41.489Z,16.65
2023-04-12T23:34:08.938Z,14.75
2023-04-12T23:36:36.287Z,18.25
2023-04-12T23:39:07.295Z,13.45
2023-04-12T23:41:34.662Z,12.05
2023-04-12T23:44:02.107Z,16.13
2023-04-12T23:46:29.960Z,20.25
2023-04-12T23:48:57.283Z,15.13
2023-04-12T23:51:27.206Z,18.95
2023-04-12T23:53:54.496Z,16.42
2023-04-12T23:56:22.073Z,21.80
2023-04-12T23:58:49.485Z,16.63
